Time;durP1;ratioP1;P1;durP2;ratioP2;P2;SDS_P1;SDS_P2;PMS_P1;PMS_P2;Temp;Humidity;BMP_temperature;BMP_pressure;BME280_temperature;BME280_humidity;BME280_pressure;Samples;Min_cycle;Max_cycle;Signal;HPM_P1;HPM_P2
2021/03/06 00:00:31;;;;;;;94.22;37.10;;;;;;;-2.62;70.87;98176.46;1804767;77;26119;-89
2021/03/06 00:03:00;;;;;;;79.42;35.05;;;;;;;-2.65;70.83;98183.76;1808680;77;25685;-89
2021/03/06 00:05:28;;;;;;;83.52;34.63;;;;;;;-2.66;70.88;98194.84;1817438;77;26456;-89
2021/03/06 00:07:56;;;;;;;83.65;36.45;;;;;;;-2.71;70.87;98189.02;1819305;77;25817;-89
2021/03/06 00:10:23;;;;;;;85.50;35.50;;;;;;;-2.71;71.07;98192.98;1831559;77;27552;-89
2021/03/06 00:12:51;;;;;;;92.95;37.63;;;;;;;-2.64;71.18;98198.19;1809435;77;26309;-89
2021/03/06 00:15:27;;;;;;;85.42;37.33;;;;;;;-2.63;71.07;98193.75;1811907;77;25766;-89
2021/03/06 00:17:54;;;;;;;83.25;35.58;;;;;;;-2.60;71.00;98194.86;1835003;77;25737;-90
2021/03/06 00:20:23;;;;;;;97.05;39.48;;;;;;;-2.58;70.81;98203.05;1825306;77;25825;-89
2021/03/06 00:22:53;;;;;;;101.15;43.63;;;;;;;-2.57;70.81;98202.09;1810832;77;27604;-90
2021/03/06 00:25:21;;;;;;;86.95;37.25;;;;;;;-2.55;70.64;98206.80;1814371;77;25730;-89
2021/03/06 00:27:48;;;;;;;87.70;34.48;;;;;;;-2.57;70.60;98203.42;1809523;77;25675;-89
2021/03/06 00:30:19;;;;;;;80.00;33.50;;;;;;;-2.57;70.55;98207.38;1809300;77;25702;-89
2021/03/06 00:32:46;;;;;;;77.32;33.23;;;;;;;-2.54;70.57;98207.14;1753358;80;25771;-89
2021/03/06 00:35:15;;;;;;;82.25;32.90;;;;;;;-2.60;70.48;98202.78;1773753;79;27481;-89
2021/03/06 00:37:42;;;;;;;77.22;33.20;;;;;;;-2.61;70.62;98200.63;1759735;80;25810;-88
2021/03/06 00:40:12;;;;;;;84.05;35.25;;;;;;;-2.62;70.55;98204.69;1809505;77;25685;-89
2021/03/06 00:42:39;;;;;;;105.95;43.33;;;;;;;-2.59;70.54;98201.83;1806732;77;25771;-88
2021/03/06 00:45:09;;;;;;;104.10;41.18;;;;;;;-2.61;70.56;98200.63;1828703;77;25895;-89
2021/03/06 00:47:36;;;;;;;103.47;38.58;;;;;;;-2.64;70.58;98192.91;1831824;77;28559;-88
2021/03/06 00:50:21;;;;;;;95.87;38.30;;;;;;;-2.68;70.60;98191.45;1769708;80;25751;-89
2021/03/06 00:52:48;;;;;;;97.12;38.65;;;;;;;-2.73;70.56;98192.25;1773180;78;25814;-89
2021/03/06 00:55:16;;;;;;;88.55;37.15;;;;;;;-2.76;70.65;98193.78;1755062;78;26519;-89
2021/03/06 00:57:44;;;;;;;135.25;48.68;;;;;;;-2.77;70.65;98195.20;1755457;78;25746;-89
2021/03/06 01:00:13;;;;;;;94.80;39.08;;;;;;;-2.81;70.68;98193.28;1785733;80;28616;-89
2021/03/06 01:02:40;;;;;;;90.95;36.73;;;;;;;-2.77;70.75;98189.45;1770049;78;25695;-89
2021/03/06 01:05:08;;;;;;;78.92;33.90;;;;;;;-2.75;70.82;98187.55;1776989;78;25742;-89
2021/03/06 01:07:36;;;;;;;73.10;31.23;;;;;;;-2.74;70.71;98185.27;1757308;78;26442;-89
2021/03/06 01:10:14;;;;;;;83.90;32.88;;;;;;;-2.68;70.70;98190.61;1755048;80;25796;-88
2021/03/06 01:12:41;;;;;;;80.65;35.75;;;;;;;-2.66;70.71;98190.88;1773911;80;27506;-89
2021/03/06 01:15:10;;;;;;;88.33;34.73;;;;;;;-2.62;70.84;98190.16;1773018;78;25865;-89
2021/03/06 01:17:37;;;;;;;73.83;31.27;;;;;;;-2.63;70.79;98191.95;1815736;77;25357;-89
2021/03/06 01:20:06;;;;;;;71.95;29.63;;;;;;;-2.64;70.71;98195.55;1787275;77;25814;-89
2021/03/06 01:22:34;;;;;;;73.97;31.10;;;;;;;-2.63;70.69;98197.23;1799608;77;25780;-88
2021/03/06 01:25:02;;;;;;;75.40;30.77;;;;;;;-2.60;70.65;98196.18;1814169;77;27491;-89
2021/03/06 01:27:29;;;;;;;64.58;28.20;;;;;;;-2.62;70.61;98188.36;1851437;77;26045;-88
2021/03/06 01:29:57;;;;;;;60.88;29.48;;;;;;;-2.64;70.57;98188.94;1826832;77;25679;-89
2021/03/06 01:32:24;;;;;;;74.75;32.40;;;;;;;-2.66;70.62;98192.67;1841600;77;26502;-89
2021/03/06 01:34:52;;;;;;;73.67;30.25;;;;;;;-2.64;70.70;98195.55;1818175;77;25755;-89
2021/03/06 01:37:19;;;;;;;67.22;29.48;;;;;;;-2.66;70.66;98196.16;1818141;77;27551;-89
2021/03/06 01:39:47;;;;;;;69.37;28.50;;;;;;;-2.64;70.73;98195.55;1818109;77;25741;-89
2021/03/06 01:42:15;;;;;;;60.08;27.85;;;;;;;-2.72;70.59;98192.62;1841442;77;25733;-89
2021/03/06 01:44:42;;;;;;;68.92;31.55;;;;;;;-2.75;70.76;98202.08;1814323;77;25827;-89
2021/03/06 01:47:10;;;;;;;74.77;34.30;;;;;;;-2.75;70.89;98194.63;1816803;77;25855;-89
2021/03/06 01:49:37;;;;;;;86.82;35.30;;;;;;;-2.73;70.86;98198.86;1817991;77;28504;-88
2021/03/06 01:52:06;;;;;;;100.20;39.88;;;;;;;-2.75;70.83;98193.30;1817933;77;25669;-89
2021/03/06 01:54:33;;;;;;;82.82;33.42;;;;;;;-2.70;70.98;98203.08;1820328;77;25759;-88
2021/03/06 01:57:01;;;;;;;86.10;35.17;;;;;;;-2.71;70.75;98202.23;1829565;77;25713;-89
2021/03/06 01:59:29;;;;;;;89.95;38.48;;;;;;;-2.74;70.83;98210.85;1841839;77;25843;-89
2021/03/06 02:01:56;;;;;;;90.55;37.98;;;;;;;-2.79;70.76;98205.06;1815092;77;27549;-88
2021/03/06 02:04:24;;;;;;;88.30;35.38;;;;;;;-2.88;70.70;98205.22;1815151;77;25841;-88
2021/03/06 02:06:51;;;;;;;79.42;32.13;;;;;;;-2.84;70.80;98206.70;1818276;77;25723;-89
2021/03/06 02:09:18;;;;;;;80.17;34.27;;;;;;;-2.89;70.80;98208.81;1837836;77;25740;-89
2021/03/06 02:12:18;;;;;;;76.87;31.80;;;;;;;-2.90;70.87;98207.97;1821723;77;25884;-89
2021/03/06 02:15:29;;;;;;;68.95;32.78;;;;;;;-2.95;70.92;98206.62;1818130;77;27495;-88
2021/03/06 02:18:23;;;;;;;72.08;32.42;;;;;;;-2.92;71.17;98209.05;1812412;77;25801;-89
2021/03/06 02:20:58;;;;;;;73.57;32.65;;;;;;;-3.03;70.99;98205.84;1837414;77;25735;-89
2021/03/06 02:23:57;;;;;;;73.85;33.48;;;;;;;-3.07;71.16;98210.13;1816538;77;26428;-89
2021/03/06 02:26:30;;;;;;;119.30;49.33;;;;;;;-3.04;71.22;98208.59;1822109;77;26254;-89
2021/03/06 02:29:28;;;;;;;138.82;59.75;;;;;;;-3.05;71.19;98206.91;1809532;77;27487;-88
2021/03/06 02:31:56;;;;;;;88.03;39.78;;;;;;;-3.09;71.24;98208.91;1832889;77;25880;-88
2021/03/06 02:34:31;;;;;;;119.70;48.58;;;;;;;-3.16;71.16;98218.69;1775918;79;25818;-89
2021/03/06 02:37:06;;;;;;;124.75;48.15;;;;;;;-3.21;71.17;98218.16;1818609;77;25698;-88
2021/03/06 02:39:38;;;;;;;97.05;42.60;;;;;;;-3.22;71.23;98221.74;1828476;77;25897;-89
2021/03/06 02:42:06;;;;;;;86.55;37.85;;;;;;;-3.21;71.33;98222.11;1832469;77;28508;-88
2021/03/06 02:44:36;;;;;;;93.00;38.55;;;;;;;-3.22;71.33;98224.38;1800682;77;25833;-88
2021/03/06 02:47:04;;;;;;;92.33;40.12;;;;;;;-3.21;71.28;98220.80;1804393;77;25666;-87
2021/03/06 02:49:31;;;;;;;77.97;36.53;;;;;;;-3.19;71.28;98225.50;1809468;77;27024;-89
2021/03/06 02:51:59;;;;;;;93.55;42.85;;;;;;;-3.26;71.19;98221.94;1809643;77;25742;-89
2021/03/06 02:54:26;;;;;;;86.87;39.73;;;;;;;-3.31;71.28;98217.48;1831243;77;27478;-89
2021/03/06 02:56:54;;;;;;;91.78;41.60;;;;;;;-3.28;71.36;98225.19;1806253;77;25711;-88
2021/03/06 02:59:58;;;;;;;139.12;62.35;;;;;;;-3.24;71.49;98228.92;1806737;77;25895;-88
2021/03/06 03:02:55;;;;;;;95.72;42.23;;;;;;;-3.24;71.41;98228.92;1827767;77;26487;-88
2021/03/06 03:05:33;;;;;;;88.87;38.88;;;;;;;-3.24;71.48;98230.23;1832620;77;25748;-88
2021/03/06 03:08:18;;;;;;;87.10;37.80;;;;;;;-3.28;71.44;98231.80;1782439;77;28526;-88
2021/03/06 03:10:51;;;;;;;84.50;38.63;;;;;;;-3.31;71.50;98225.39;1814129;77;25697;-89
2021/03/06 03:13:39;;;;;;;92.05;37.55;;;;;;;-3.33;71.45;98231.25;1811242;77;25777;-88
2021/03/06 03:16:29;;;;;;;107.40;47.38;;;;;;;-3.29;71.57;98235.86;1809539;77;26463;-88
2021/03/06 03:19:02;;;;;;;91.22;39.20;;;;;;;-3.22;71.51;98237.11;1806514;77;26359;-88
2021/03/06 03:21:33;;;;;;;100.25;43.25;;;;;;;-3.30;71.32;98242.93;1805527;77;27609;-89
2021/03/06 03:24:14;;;;;;;73.12;33.30;;;;;;;-3.27;71.54;98249.33;1836030;77;25677;-89
2021/03/06 03:26:44;;;;;;;117.35;51.37;;;;;;;-3.23;71.64;98251.73;1822507;77;25792;-88
2021/03/06 03:29:13;;;;;;;110.83;50.88;;;;;;;-3.32;71.44;98246.14;1818188;77;26536;-88
2021/03/06 03:31:45;;;;;;;98.97;42.27;;;;;;;-3.43;71.49;98255.27;1839109;77;25690;-88
2021/03/06 03:34:13;;;;;;;98.33;44.45;;;;;;;-3.49;71.57;98254.34;1821377;77;32238;-89
2021/03/06 03:36:41;;;;;;;84.42;40.40;;;;;;;-3.59;71.69;98253.28;1816026;77;25834;-88
2021/03/06 03:39:10;;;;;;;96.60;43.28;;;;;;;-3.51;71.91;98250.15;1817353;77;25791;-87
2021/03/06 03:41:38;;;;;;;94.83;44.42;;;;;;;-3.49;71.88;98258.31;1818082;77;25789;-88
2021/03/06 03:44:07;;;;;;;91.22;41.65;;;;;;;-3.51;71.83;98264.20;1817812;77;26245;-88
2021/03/06 03:46:35;;;;;;;92.53;41.90;;;;;;;-3.48;71.84;98261.33;1761477;80;27532;-88
2021/03/06 03:49:04;;;;;;;96.35;43.02;;;;;;;-3.40;71.87;98264.78;1784293;80;25885;-88
2021/03/06 03:51:34;;;;;;;80.80;38.53;;;;;;;-3.43;71.74;98266.30;1791573;79;25810;-88
2021/03/06 03:54:01;;;;;;;87.75;40.05;;;;;;;-3.41;71.83;98263.94;1817541;78;25704;-88
2021/03/06 03:56:29;;;;;;;92.80;42.50;;;;;;;-3.42;71.86;98271.48;1809071;78;25884;-87
2021/03/06 03:58:56;;;;;;;85.03;38.63;;;;;;;-3.38;71.98;98278.22;1778809;80;27484;-88
2021/03/06 04:01:23;;;;;;;98.62;43.20;;;;;;;-3.35;71.98;98275.86;1791739;80;25793;-89
2021/03/06 04:03:51;;;;;;;105.90;45.43;;;;;;;-3.37;71.94;98279.92;1791974;80;25682;-88
2021/03/06 04:06:18;;;;;;;98.25;42.95;;;;;;;-3.29;71.99;98279.42;1788468;80;25818;-89
2021/03/06 04:08:45;;;;;;;95.38;41.48;;;;;;;-3.26;72.00;98284.50;1760695;80;25829;-88
2021/03/06 04:11:14;;;;;;;87.08;40.30;;;;;;;-3.27;72.04;98283.66;1760489;79;28463;-88
2021/03/06 04:13:41;;;;;;;97.70;41.45;;;;;;;-3.23;72.14;98285.59;1771157;80;25837;-88
2021/03/06 04:16:09;;;;;;;97.70;41.77;;;;;;;-3.14;72.09;98286.78;1771797;80;25755;-88
2021/03/06 04:18:36;;;;;;;95.40;42.48;;;;;;;-3.06;72.18;98288.41;1768677;79;26289;-89
2021/03/06 04:21:04;;;;;;;87.02;41.45;;;;;;;-3.07;72.14;98281.44;1791912;80;25832;-88
2021/03/06 04:23:31;;;;;;;84.03;40.08;;;;;;;-3.04;72.16;98287.84;1762178;80;27555;-88
2021/03/06 04:25:59;;;;;;;85.97;39.75;;;;;;;-2.97;72.16;98285.97;1762076;81;25685;-88
2021/03/06 04:28:26;;;;;;;88.67;39.40;;;;;;;-2.95;72.14;98285.87;1740817;81;25887;-88
2021/03/06 04:30:53;;;;;;;90.38;40.48;;;;;;;-2.90;72.17;98279.81;1750299;81;26441;-88
2021/03/06 04:33:21;;;;;;;109.42;46.70;;;;;;;-2.85;72.10;98283.43;1731930;81;25917;-88
2021/03/06 04:35:48;;;;;;;79.77;37.03;;;;;;;-2.82;72.04;98286.72;1731935;81;27583;-89
2021/03/06 04:38:15;;;;;;;78.78;36.33;;;;;;;-2.75;72.04;98287.97;1731837;81;25787;-88
2021/03/06 04:40:42;;;;;;;85.50;38.80;;;;;;;-2.81;71.79;98283.12;1738851;81;25841;-89
2021/03/06 04:43:10;;;;;;;82.85;36.55;;;;;;;-2.85;71.84;98300.13;1745706;81;26480;-88
2021/03/06 04:45:37;;;;;;;86.05;39.33;;;;;;;-2.88;71.90;98297.69;1731880;81;25821;-88
2021/03/06 04:48:06;;;;;;;94.85;42.20;;;;;;;-2.96;71.90;98297.39;1731866;81;28526;-88
2021/03/06 04:50:33;;;;;;;83.90;40.03;;;;;;;-2.94;72.04;98300.77;1740979;81;25774;-88
2021/03/06 04:53:00;;;;;;;84.03;37.90;;;;;;;-2.87;72.25;98299.39;1731867;81;25786;-89
2021/03/06 04:55:27;;;;;;;83.45;37.60;;;;;;;-2.92;72.21;98299.72;1753355;81;26561;-88
2021/03/06 04:57:55;;;;;;;83.47;37.73;;;;;;;-2.88;72.28;98297.69;1753140;81;25842;-88
2021/03/06 05:00:23;;;;;;;77.10;37.48;;;;;;;-2.84;72.34;98309.75;1749296;81;27552;-88
2021/03/06 05:02:51;;;;;;;77.80;38.02;;;;;;;-2.87;72.22;98309.95;1740651;81;25740;-87
2021/03/06 05:05:18;;;;;;;90.10;40.58;;;;;;;-2.95;72.14;98310.49;1746100;81;25787;-88
2021/03/06 05:07:46;;;;;;;79.53;36.85;;;;;;;-2.95;72.34;98309.64;1731571;81;25720;-88
2021/03/06 05:10:14;;;;;;;74.27;36.03;;;;;;;-2.91;72.39;98307.17;1744871;81;25762;-89
2021/03/06 05:12:41;;;;;;;82.20;39.78;;;;;;;-2.92;72.46;98314.73;1739502;81;27518;-87
2021/03/06 05:15:09;;;;;;;86.08;39.48;;;;;;;-2.97;72.38;98319.47;1731714;81;25781;-87
2021/03/06 05:17:36;;;;;;;85.60;39.25;;;;;;;-3.00;72.45;98328.92;1752233;81;25814;-88
2021/03/06 05:20:05;;;;;;;80.05;38.20;;;;;;;-3.05;72.41;98329.72;1732313;81;25765;-87
2021/03/06 05:22:33;;;;;;;89.35;40.17;;;;;;;-3.04;72.56;98328.78;1731890;81;25814;-88
2021/03/06 05:25:00;;;;;;;79.65;37.70;;;;;;;-3.01;72.59;98336.47;1763519;80;27540;-87
2021/03/06 05:27:27;;;;;;;85.00;40.70;;;;;;;-2.96;72.68;98327.77;1787154;77;25761;-88
2021/03/06 05:29:54;;;;;;;87.80;38.53;;;;;;;-2.92;72.61;98330.58;1808092;77;26341;-87
2021/03/06 05:32:22;;;;;;;105.37;44.90;;;;;;;-2.86;72.70;98330.14;1835642;77;25813;-87
2021/03/06 05:34:49;;;;;;;108.45;47.13;;;;;;;-2.94;72.59;98325.40;1812457;77;26421;-88
2021/03/06 05:37:16;;;;;;;110.37;46.15;;;;;;;-2.90;72.73;98324.22;1815572;77;27582;-88
2021/03/06 05:39:44;;;;;;;111.92;48.02;;;;;;;-2.85;72.70;98334.48;1794396;77;25703;-89
2021/03/06 05:42:12;;;;;;;136.12;63.20;;;;;;;-2.83;72.71;98331.27;1806772;77;25666;-88
2021/03/06 05:44:41;;;;;;;158.42;64.12;;;;;;;-2.78;72.67;98332.28;1800847;77;25739;-88
2021/03/06 05:47:09;;;;;;;134.72;58.63;;;;;;;-2.73;72.67;98335.43;1801813;77;26364;-88
2021/03/06 05:49:36;;;;;;;119.62;55.95;;;;;;;-2.74;72.58;98342.51;1817334;77;27567;-87
2021/03/06 05:52:06;;;;;;;134.15;60.92;;;;;;;-2.70;72.64;98344.00;1814325;77;25800;-88
2021/03/06 05:54:36;;;;;;;127.22;59.60;;;;;;;-2.68;72.43;98344.75;1798991;77;25862;-88
2021/03/06 05:57:05;;;;;;;122.22;56.68;;;;;;;-2.82;72.37;98351.45;1790903;77;26533;-88
2021/03/06 05:59:34;;;;;;;129.75;61.25;;;;;;;-2.77;72.53;98354.61;1792562;77;25763;-88
2021/03/06 06:02:02;;;;;;;135.22;64.25;;;;;;;-2.67;72.64;98357.01;1828051;77;27491;-88
2021/03/06 06:04:30;;;;;;;197.87;82.90;;;;;;;-2.60;72.58;98361.38;1823114;77;25868;-87
2021/03/06 06:07:01;;;;;;;173.30;77.65;;;;;;;-2.64;72.47;98366.50;1826612;77;25714;-87
2021/03/06 06:09:29;;;;;;;149.50;65.13;;;;;;;-2.55;72.58;98375.14;1834169;77;26482;-87
2021/03/06 06:11:56;;;;;;;151.63;63.60;;;;;;;-2.63;72.44;98380.09;1805292;77;25659;-87
2021/03/06 06:14:23;;;;;;;127.00;57.20;;;;;;;-2.65;72.66;98386.80;1803920;77;27806;-87
2021/03/06 06:16:51;;;;;;;101.53;49.05;;;;;;;-2.63;72.83;98392.83;1801535;77;25368;-87
2021/03/06 06:19:18;;;;;;;138.00;66.85;;;;;;;-2.55;72.81;98392.33;1787412;77;25763;-87
2021/03/06 06:21:50;;;;;;;133.05;67.03;;;;;;;-2.52;72.74;98396.53;1802934;77;25770;-87
2021/03/06 06:24:22;;;;;;;107.07;52.25;;;;;;;-2.40;72.83;98401.81;1824561;77;32663;-86
2021/03/06 06:27:02;;;;;;;;;;;;;;;-2.34;72.73;98409.81;1854324;77;27621;-88
2021/03/06 06:29:45;;;;;;;119.35;53.92;;;;;;;-2.31;72.90;98409.13;1829326;77;26079;-87
2021/03/06 06:32:15;;;;;;;93.58;46.45;;;;;;;-2.22;72.85;98406.31;1812435;77;25718;-88
2021/03/06 06:34:59;;;;;;;105.37;50.52;;;;;;;-2.25;72.88;98405.20;1737217;80;26436;-88
2021/03/06 06:37:29;;;;;;;93.03;44.63;;;;;;;-2.23;72.85;98410.75;1793908;79;25856;-88
2021/03/06 06:39:58;;;;;;;82.82;41.73;;;;;;;-2.17;72.75;98408.64;1790090;80;26707;-87
2021/03/06 06:42:35;;;;;;;73.72;40.38;;;;;;;-2.12;72.74;98411.31;1760520;79;25997;-88
2021/03/06 06:45:05;;;;;;;76.87;39.55;;;;;;;-2.08;72.65;98418.09;1784484;80;25912;-87
2021/03/06 06:47:42;;;;;;;82.90;40.03;;;;;;;-2.04;72.62;98416.91;1779726;80;25835;-88
2021/03/06 06:50:13;;;;;;;76.53;40.48;;;;;;;-2.04;72.57;98418.23;1784902;79;25751;-86
2021/03/06 06:52:43;;;;;;;73.72;39.30;;;;;;;-1.94;72.72;98419.77;1792058;80;28380;-87
2021/03/06 06:55:14;;;;;;;73.05;37.83;;;;;;;-1.84;72.81;98416.36;1790819;79;25741;-87
2021/03/06 06:57:54;;;;;;;75.08;36.53;;;;;;;-1.73;72.67;98424.00;1788107;80;25740;-87
2021/03/06 07:00:22;;;;;;;66.95;32.88;;;;;;;-1.64;72.53;98422.86;1774218;80;25757;-87
2021/03/06 07:02:55;;;;;;;60.73;33.23;;;;;;;-1.55;72.22;98420.01;1778598;80;26258;-87
2021/03/06 07:05:33;;;;;;;68.07;35.40;;;;;;;-1.55;71.95;98414.72;1754771;80;28921;-89
2021/03/06 07:08:07;;;;;;;59.70;35.55;;;;;;;-1.47;72.01;98421.16;1737486;81;25801;-87
2021/03/06 07:10:37;;;;;;;63.35;32.33;;;;;;;-1.34;72.08;98426.41;1745510;80;25790;-87
2021/03/06 07:13:10;;;;;;;57.93;30.12;;;;;;;-1.23;72.03;98427.80;1738964;81;26876;-87
2021/03/06 07:15:39;;;;;;;61.65;33.13;;;;;;;-1.21;71.75;98429.82;1777096;79;25783;-87
2021/03/06 07:18:11;;;;;;;62.45;33.80;;;;;;;-1.17;71.71;98430.45;1785159;79;26532;-88
2021/03/06 07:20:43;;;;;;;52.48;29.90;;;;;;;-1.05;71.76;98427.38;1762327;79;25826;-87
2021/03/06 07:23:25;;;;;;;50.15;30.68;;;;;;;-0.91;71.69;98425.39;1763125;79;25737;-87
2021/03/06 07:25:56;;;;;;;51.55;30.55;;;;;;;-0.81;71.43;98429.52;1774058;78;25769;-87
2021/03/06 07:28:24;;;;;;;55.05;30.75;;;;;;;-0.65;71.24;98431.37;1797071;79;25897;-87
2021/03/06 07:30:54;;;;;;;60.40;31.42;;;;;;;-0.59;70.81;98433.55;1809474;77;27501;-85
2021/03/06 07:33:23;;;;;;;56.58;28.77;;;;;;;-0.53;70.74;98439.72;1829444;77;25754;-86
2021/03/06 07:35:54;;;;;;;46.48;24.45;;;;;;;-0.39;70.73;98434.21;1813442;77;26058;-85
2021/03/06 07:38:23;;;;;;;48.08;26.20;;;;;;;-0.30;70.42;98439.28;1837032;77;31942;-87
2021/03/06 07:41:00;;;;;;;46.92;26.12;;;;;;;-0.24;70.28;98443.28;1787267;77;25795;-86
2021/03/06 07:43:31;;;;;;;51.45;27.95;;;;;;;-0.16;70.25;98441.72;1827560;77;26897;-87
2021/03/06 07:46:01;;;;;;;56.80;29.07;;;;;;;-0.08;70.18;98451.72;1799558;77;26484;-86
2021/03/06 07:48:36;;;;;;;50.65;27.55;;;;;;;0.01;70.11;98451.00;1791026;77;25740;-86
2021/03/06 07:51:05;;;;;;;41.95;22.02;;;;;;;0.11;70.05;98450.66;1817553;77;26108;-86
2021/03/06 07:53:34;;;;;;;44.13;22.82;;;;;;;0.18;69.71;98453.19;1803927;77;25812;-86
2021/03/06 07:56:07;;;;;;;33.95;19.67;;;;;;;0.27;69.71;98449.80;1744276;80;27472;-85
2021/03/06 07:58:51;;;;;;;35.48;18.62;;;;;;;0.30;69.39;98454.87;1799080;77;26052;-86
2021/03/06 08:01:30;;;;;;;27.73;15.70;;;;;;;0.34;69.32;98453.67;1793796;77;25686;-86
2021/03/06 08:04:00;;;;;;;32.70;18.70;;;;;;;0.30;69.37;98458.85;1806872;77;25706;-86
2021/03/06 08:06:29;;;;;;;31.57;18.92;;;;;;;0.26;69.04;98464.52;1773093;79;25687;-85
2021/03/06 08:08:59;;;;;;;28.57;15.20;;;;;;;0.31;68.87;98472.50;1805555;78;28589;-85
2021/03/06 08:11:40;;;;;;;31.07;16.27;;;;;;;0.36;68.80;98467.64;1773228;78;25754;-85
2021/03/06 08:14:30;;;;;;;25.65;15.28;;;;;;;0.48;68.87;98470.32;1763549;79;25358;-86
2021/03/06 08:16:58;;;;;;;26.17;14.38;;;;;;;0.59;68.66;98467.16;1809460;77;25820;-86
2021/03/06 08:19:27;;;;;;;28.35;14.53;;;;;;;0.66;68.43;98471.48;1809778;77;25749;-86
2021/03/06 08:21:57;;;;;;;29.07;16.25;;;;;;;0.61;68.43;98470.52;1819721;77;28383;-86
2021/03/06 08:24:28;;;;;;;31.00;17.02;;;;;;;0.60;68.21;98465.36;1762316;80;25734;-85
2021/03/06 08:27:09;;;;;;;28.25;17.07;;;;;;;0.75;68.21;98473.39;1774548;79;25715;-86
2021/03/06 08:29:40;;;;;;;23.27;13.80;;;;;;;0.81;68.00;98475.57;1776538;80;25833;-86
2021/03/06 08:32:26;;;;;;;29.52;15.10;;;;;;;0.73;67.67;98472.67;1828654;77;25781;-86
2021/03/06 08:35:00;;;;;;;31.48;16.35;;;;;;;0.71;67.68;98474.16;1815053;77;27497;-86
2021/03/06 08:37:30;;;;;;;28.00;15.32;;;;;;;0.75;67.60;98475.20;1723917;80;25722;-86
2021/03/06 08:40:17;;;;;;;27.82;16.23;;;;;;;0.68;67.40;98476.20;1787214;77;25718;-86
2021/03/06 08:42:54;;;;;;;28.00;16.60;;;;;;;0.66;67.67;98476.80;1808025;77;25446;-87
2021/03/06 08:45:26;;;;;;;28.30;15.75;;;;;;;0.70;67.65;98482.24;1770927;79;26408;-86
2021/03/06 08:48:02;;;;;;;33.60;16.48;;;;;;;0.75;67.22;98484.02;1830116;77;28436;-86
2021/03/06 08:50:35;;;;;;;27.98;14.95;;;;;;;0.86;67.18;98477.84;1834001;77;25730;-86
2021/03/06 08:53:09;;;;;;;19.65;12.18;;;;;;;0.91;67.01;98484.48;1821313;77;25702;-86
2021/03/06 08:55:40;;;;;;;28.52;16.50;;;;;;;0.91;67.32;98484.48;1801863;79;25791;-86
2021/03/06 08:58:11;;;;;;;28.83;15.63;;;;;;;1.02;67.21;98484.45;1793277;79;25753;-86
2021/03/06 09:00:48;;;;;;;28.05;15.05;;;;;;;1.12;66.97;98483.69;1794229;77;27498;-86
2021/03/06 09:03:24;;;;;;;26.15;14.95;;;;;;;1.15;66.93;98484.77;1809517;77;25763;-86
2021/03/06 09:06:00;;;;;;;25.05;14.63;;;;;;;1.06;66.88;98489.89;1794740;77;25672;-86
2021/03/06 09:08:29;;;;;;;28.95;15.50;;;;;;;1.07;67.02;98490.25;1827698;77;25749;-86
2021/03/06 09:10:59;;;;;;;28.52;13.28;;;;;;;1.20;67.03;98490.58;1783014;78;25823;-85
2021/03/06 09:13:30;;;;;;;21.05;10.72;;;;;;;1.33;66.65;98488.08;1830988;77;28277;-86
2021/03/06 09:16:06;;;;;;;26.97;12.43;;;;;;;1.31;65.89;98491.37;1794232;77;26120;-85
2021/03/06 09:18:37;;;;;;;25.68;13.68;;;;;;;1.26;66.06;98492.71;1821546;77;37035;-85
2021/03/06 09:21:20;;;;;;;32.90;16.40;;;;;;;1.42;66.26;98491.80;1826056;77;26515;-85
2021/03/06 09:23:53;;;;;;;16.77;9.25;;;;;;;1.62;66.32;98497.63;1800234;77;25918;-86
2021/03/06 09:26:25;;;;;;;16.15;8.80;;;;;;;1.76;66.14;98495.98;1786546;77;27498;-86
2021/03/06 09:28:56;;;;;;;13.90;7.70;;;;;;;1.74;65.78;98492.60;1794662;77;29444;-85
2021/03/06 09:31:28;;;;;;;16.93;8.58;;;;;;;1.63;65.34;98496.66;1781774;79;25661;-86
2021/03/06 09:33:56;;;;;;;22.37;12.40;;;;;;;1.50;65.04;98492.00;1808064;77;31139;-86
2021/03/06 09:36:29;;;;;;;15.08;7.85;;;;;;;1.53;65.13;98499.73;1777518;79;25642;-86
2021/03/06 09:38:59;;;;;;;13.65;6.85;;;;;;;1.65;65.22;98497.38;1791749;79;27556;-85
2021/03/06 09:41:34;;;;;;;14.10;7.03;;;;;;;1.83;65.05;98490.13;1809326;77;25667;-84
2021/03/06 09:44:04;;;;;;;9.28;5.72;;;;;;;1.90;64.84;98492.64;1793518;77;25829;-85
2021/03/06 09:46:34;;;;;;;14.98;7.40;;;;;;;1.93;64.26;98495.05;1749901;79;26424;-86
2021/03/06 09:49:07;;;;;;;12.25;6.65;;;;;;;2.02;64.09;98492.44;1842583;77;25806;-85
2021/03/06 09:51:51;;;;;;;15.03;6.35;;;;;;;1.98;63.73;98491.48;1806529;77;27501;-86
2021/03/06 09:54:25;;;;;;;12.13;6.42;;;;;;;1.91;64.10;98496.51;1801135;77;26343;-85
2021/03/06 09:56:58;;;;;;;11.03;5.67;;;;;;;2.00;64.32;98489.06;1796520;77;25764;-84
2021/03/06 09:59:28;;;;;;;13.45;6.40;;;;;;;2.18;64.07;98481.28;1799516;79;26192;-84
2021/03/06 10:02:08;;;;;;;11.03;6.30;;;;;;;2.42;63.82;98484.48;1797857;77;25346;-84
2021/03/06 10:04:37;;;;;;;11.45;7.00;;;;;;;2.56;63.35;98481.09;1830135;77;27491;-84
2021/03/06 10:07:12;;;;;;;14.43;7.78;;;;;;;2.67;63.42;98488.98;1788414;79;26097;-84
2021/03/06 10:09:40;;;;;;;17.15;7.78;;;;;;;2.74;63.14;98486.16;1789423;77;25783;-85
2021/03/06 10:12:13;;;;;;;12.47;6.75;;;;;;;2.85;62.86;98492.70;1787091;77;26282;-84
2021/03/06 10:14:40;;;;;;;13.95;7.28;;;;;;;2.95;62.45;98496.23;1812662;77;25723;-85
2021/03/06 10:17:10;;;;;;;15.45;7.58;;;;;;;2.98;62.27;98489.30;1819522;77;27671;-85
2021/03/06 10:19:50;;;;;;;13.48;7.85;;;;;;;2.58;62.03;98491.14;1828359;77;26390;-85
2021/03/06 10:22:20;;;;;;;25.30;9.13;;;;;;;2.43;62.27;98499.98;1809564;77;25870;-86
2021/03/06 10:24:59;;;;;;;14.95;8.55;;;;;;;2.38;62.56;98500.41;1798381;77;25705;-84
2021/03/06 10:27:42;;;;;;;14.55;8.25;;;;;;;2.37;62.71;98501.86;1808702;77;26373;-86
2021/03/06 10:30:30;;;;;;;14.25;8.08;;;;;;;2.25;62.71;98497.60;1838504;77;27657;-85
2021/03/06 10:33:05;;;;;;;11.88;7.53;;;;;;;2.11;62.78;98506.29;1819089;77;25721;-85
2021/03/06 10:35:42;;;;;;;16.35;7.25;;;;;;;2.15;62.95;98506.39;1794311;77;26179;-86
2021/03/06 10:38:23;;;;;;;14.93;7.75;;;;;;;2.19;62.83;98500.29;1820525;77;26479;-86
2021/03/06 10:40:55;;;;;;;16.10;8.03;;;;;;;2.24;63.07;98502.57;1802599;77;25862;-86
2021/03/06 10:43:40;;;;;;;16.95;8.90;;;;;;;2.14;62.65;98506.52;1799311;77;27780;-85
2021/03/06 10:46:21;;;;;;;15.43;7.22;;;;;;;1.92;62.63;98506.19;1805703;77;26166;-86
2021/03/06 10:49:07;;;;;;;10.78;6.17;;;;;;;2.20;62.97;98501.14;1794805;77;25359;-84
2021/03/06 10:51:49;;;;;;;5.62;3.52;;;;;;;2.66;62.75;98492.63;1809550;77;26332;-86
2021/03/06 10:54:18;;;;;;;8.28;4.17;;;;;;;3.26;62.12;98495.15;1796545;77;26275;-87
2021/03/06 10:56:45;;;;;;;6.12;3.52;;;;;;;3.77;61.40;98486.02;1831900;77;26759;-86
2021/03/06 10:59:14;;;;;;;8.28;4.92;;;;;;;4.25;61.04;98482.39;1819925;77;26179;-85
2021/03/06 11:01:50;;;;;;;11.10;5.33;;;;;;;4.59;60.28;98484.02;1841842;77;25824;-86
2021/03/06 11:04:27;;;;;;;27.70;9.78;;;;;;;4.66;58.74;98481.97;1808417;77;26478;-86
2021/03/06 11:07:01;;;;;;;10.65;5.42;;;;;;;4.41;58.18;98478.63;1822592;77;25727;-84
2021/03/06 11:09:32;;;;;;;8.95;4.30;;;;;;;4.43;58.45;98476.65;1816998;77;27725;-85
2021/03/06 11:12:25;;;;;;;8.35;3.70;;;;;;;4.51;57.58;98468.73;1801572;77;26314;-86
2021/03/06 11:15:15;;;;;;;5.33;3.25;;;;;;;4.59;57.93;98461.29;1807821;77;25289;-86
2021/03/06 11:17:46;;;;;;;7.08;3.80;;;;;;;4.42;57.11;98461.59;1793304;77;25738;-88
2021/03/06 11:20:16;;;;;;;10.20;4.30;;;;;;;4.34;56.69;98464.17;1814594;77;25794;-84
2021/03/06 11:22:46;;;;;;;5.30;3.30;;;;;;;4.22;56.23;98466.67;1807906;77;27501;-87
2021/03/06 11:25:17;;;;;;;6.97;3.75;;;;;;;4.15;56.17;98465.55;1825382;77;25690;-85
2021/03/06 11:27:54;;;;;;;6.03;3.50;;;;;;;3.99;56.15;98456.80;1815366;77;25774;-86
2021/03/06 11:30:37;;;;;;;5.62;3.60;;;;;;;4.09;56.13;98458.98;1809563;77;26261;-85
2021/03/06 11:33:08;;;;;;;6.17;3.10;;;;;;;4.12;55.54;98453.81;1840105;77;26290;-85
2021/03/06 11:35:36;;;;;;;4.30;3.00;;;;;;;4.10;55.84;98443.78;1822009;77;27488;-86
2021/03/06 11:38:06;;;;;;;7.92;3.42;;;;;;;4.13;55.86;98447.48;1782698;79;25839;-86
2021/03/06 11:40:38;;;;;;;8.53;4.35;;;;;;;4.05;55.61;98449.55;1793922;77;25801;-86
2021/03/06 11:43:06;;;;;;;8.48;4.50;;;;;;;3.88;55.61;98447.13;1800434;77;25733;-86